Alburgh, New York
Current Conditions -  °F | °C
As of 3:53 PM on Thursday 18 Dec 2014 (Local Time) from KMSS Reporting Station
Overcast Overcast  
Wind Chill: 18°   Ceiling: 1100
Heat Index: 28°   Visibility: 10mi
Dew Point: 24°   Wind: 12mph
Humidity: 85%   Direction: 250°WSW
Pressure: 29.97"   Gusts: NA
Location:  44.8293°N, 74.5271°W
Report Text: KMSS 182053Z AUTO 25010KT 10SM OVC011 M02/M04 A2997 RMK AO2 SLP155 T10221044 53010
Loading
Personal Weather Stations






























Interactive Weather Map New forecast layout! Learn more

10-Day Weather Forecast

Advertisements
Track Severe Weather on mobile